UIIIUNKL

Guest
Details From UIII - Irkutsk
To UNKL - YEMELYANOVO
Flight Number -
Tags decoded
Created
Modified
Stats Distance 489 nm / 906 km
Max Altitude 0 ft / 0 m
Waypoints 5
Social Downloads 5
Likes 0
Share VATSIM

Download

Looking for another format? Having issues loading an existing format? Contact us
Advertisement - Login to hide

Notes

Requested: UIII BD W176 SUKOR A817 RO B938 USOPA UNKL Unmatched points: W176 SUKOR A817 B938

Route

UIII BD RO USOPA UNKL

ID Type Via Altitude Latitude Longitude Leg Dist Tot Dist Heading (true) Name
O UIII APT - 0 ft / 0 m 52.26644˚ 104.39569˚ - 0 nm - Irkutsk
BD NDB - 0 ft / 0 m 52.44222˚ 103.19472˚ 45 nm 45 nm 284° / 283° RAZDOLYE NDB
RO NDB - 0 ft / 0 m 55.26500˚ 94.87750˚ 339 nm 384 nm 303° / 297° AGINSKOYE NDB
USOPA FIX - 0 ft / 0 m 56.26556˚ 92.87972˚ 90 nm 475 nm 312° / 311° -
O UNKL APT - 0 ft / 0 m 56.17295˚ 92.49328˚ 14 nm 489 nm 247° / 247° YEMELYANOVO

Altitude Profile

Advertisement - Login to hide

Weather


0- 5 10 15 20 25 30 35+ Temperature / ° C

Clouds and Precipitation
Forecast for 2018-05-21 18:00 UTC. Updated 4 hours ago

Ground ~20,000 ft ~40,000 ft Winds

UIII

Details ICAO UIII (IKT)
Name Irkutsk
Region Russia
Timezone Asia/Irkutsk (UTC+8.0)
Stats Elevation 1,675 ft / 511 m (AMSL)
Location 52.266437° 104.395694°
Runways 1
Magnetic Variation 3.787° W

METAR

UIII 212100Z 16003MPS 9999 SCT050CB 01/00 Q1012 R30/290255 NOSIG RMK QFE714/0953

Decode

TAF

TAF UIII 212000Z 2121/2221 VRB01MPS 2900 -SHSN BKN007CB TEMPO 2121/2203 0500 +SHSN VV003 BECMG 2203/2204 9999 NSW BKN015CB BECMG 2204/2206 28007MPS

Decode

Departure Runways

ID Width Length Bearing (true) Bearing (mag) Surface Threshold Offset Overrun Length
12 148 ft / 45 m 10,408 ft / 3,172 m 113.68° 117.47° Concrete 1,312 ft / 400 m 266 ft / 81 m
30 148 ft / 45 m 10,408 ft / 3,172 m 293.72° 297.51° Concrete 1,178 ft / 359 m 1,316 ft / 401 m

UNKL

Details ICAO UNKL (KJA)
Name YEMELYANOVO
Region Russia
Timezone Asia/Krasnoyarsk (UTC+7.0)
Stats Elevation 942 ft / 287 m (AMSL)
Location 56.172946° 92.493276°
Runways 1
Magnetic Variation 4.106° E

METAR

UNKL 212100Z 21005MPS 9999 SCT038CB 10/07 Q1005 R29/290055 NOSIG RMK QFE728

Decode

TAF

TAF UNKL 212000Z 2121/2221 22005G12MPS 9999 BKN020CB TEMPO 2121/2203 23011G18MPS 3100 -SHRA FEW005 BKN013CB FM220300 26007G15MPS 9000 -SHRA FEW007 BKN013CB TEMPO 2203/2209 27013G19MPS 3100 -SHRA FEW006 BKN013CB TEMPO 2209/2221 3100 -SHRA BECMG 2212/2214 28003G10MPS

Decode

Destination Runways

ID Width Length Bearing (true) Bearing (mag) Surface Threshold Offset Overrun Length
11 197 ft / 60 m 12,113 ft / 3,692 m 113.16° 109.05° Asphalt 0 ft / 0 m 235 ft / 72 m
29 197 ft / 60 m 12,113 ft / 3,692 m 293.21° 289.10° Asphalt 0 ft / 0 m 215 ft / 66 m

Popular Alternatives